Time;durP1;ratioP1;P1;durP2;ratioP2;P2;SDS_P1;SDS_P2;PMS_P1;PMS_P2;Temp;Humidity;BMP_temperature;BMP_pressure;BME280_temperature;BME280_humidity;BME280_pressure;Samples;Min_cycle;Max_cycle;Signal;HPM_P1;HPM_P2
2023/05/31 02:00:30;;;;;;;1.65;1.45;;;;;;;;;;5005923;27;20234;-77
2023/05/31 02:03:04;;;;;;;7.40;1.95;;;;;;;;;;4304349;33;20069;-76
2023/05/31 02:05:30;;;;;;;2.67;1.83;;;;;;;;;;4304206;33;20044;-79
2023/05/31 02:07:56;;;;;;;9.13;1.73;;;;;;;;;;4304500;33;20447;-80
2023/05/31 02:10:22;;;;;;;7.50;1.92;;;;;;;;;;4304627;33;20100;-80
2023/05/31 02:12:50;;;;;;;2.92;1.55;;;;;;;;;;4302690;33;20044;-80
2023/05/31 02:15:23;;;;;;;2.53;1.85;;;;;;;;;;4302596;33;20058;-79
2023/05/31 02:17:52;;;;;;;4.50;1.40;;;;;;;;;;4286443;33;20045;-79
2023/05/31 02:20:18;;;;;;;4.45;2.00;;;;;;;;;;4287871;33;20530;-79
2023/05/31 02:22:45;;;;;;;5.62;1.70;;;;;;;;;;4287842;33;20034;-78
2023/05/31 02:25:11;;;;;;;4.28;1.50;;;;;;;;;;4285996;33;20066;-78
2023/05/31 02:27:39;;;;;;;6.62;1.75;;;;;;;;;;4287646;33;20448;-78
2023/05/31 02:30:06;;;;;;;5.40;2.10;;;;;;;;;;4287305;33;20572;-80
2023/05/31 02:32:37;;;;;;;2.42;1.70;;;;;;;;;;4287499;33;20072;-78
2023/05/31 02:35:06;;;;;;;4.20;1.70;;;;;;;;;;4287330;33;20037;-78
2023/05/31 02:37:33;;;;;;;9.10;2.00;;;;;;;;;;4271721;33;20392;-78
2023/05/31 02:39:59;;;;;;;7.30;1.60;;;;;;;;;;4273163;33;20030;-79
2023/05/31 02:42:25;;;;;;;2.40;1.25;;;;;;;;;;4273315;33;20049;-78
2023/05/31 02:44:52;;;;;;;4.40;1.85;;;;;;;;;;4272822;33;20037;-79
2023/05/31 02:47:18;;;;;;;4.30;1.37;;;;;;;;;;4273020;33;20118;-79
2023/05/31 02:49:44;;;;;;;5.10;1.87;;;;;;;;;;4271598;33;20069;-79
2023/05/31 02:52:11;;;;;;;5.12;2.10;;;;;;;;;;4272849;33;20045;-78
2023/05/31 02:54:42;;;;;;;3.50;1.50;;;;;;;;;;4272695;33;20021;-80
2023/05/31 02:57:11;;;;;;;3.20;1.85;;;;;;;;;;4272707;33;20049;-80
2023/05/31 02:59:37;;;;;;;5.32;1.12;;;;;;;;;;4272600;33;20071;-79
2023/05/31 03:02:04;;;;;;;3.40;2.05;;;;;;;;;;4271313;33;20079;-79
2023/05/31 03:04:33;;;;;;;5.30;1.48;;;;;;;;;;4272980;33;20059;-80
2023/05/31 03:06:59;;;;;;;5.32;1.92;;;;;;;;;;4272991;33;20037;-81
2023/05/31 03:09:27;;;;;;;6.60;1.95;;;;;;;;;;4297563;33;20370;-80
2023/05/31 03:11:54;;;;;;;2.95;2.58;;;;;;;;;;4299692;33;20440;-79
2023/05/31 03:14:21;;;;;;;7.97;2.12;;;;;;;;;;4301541;33;20423;-79
2023/05/31 03:16:47;;;;;;;5.37;1.58;;;;;;;;;;4301250;33;20067;-80
2023/05/31 03:19:15;;;;;;;6.25;1.70;;;;;;;;;;4301468;33;20073;-77
2023/05/31 03:21:43;;;;;;;4.80;1.77;;;;;;;;;;4285420;33;20038;-77
2023/05/31 03:24:09;;;;;;;4.20;2.22;;;;;;;;;;4287177;33;20033;-77
2023/05/31 03:26:36;;;;;;;4.47;1.37;;;;;;;;;;4287017;33;20108;-78
2023/05/31 03:29:02;;;;;;;3.20;1.85;;;;;;;;;;4286710;33;20042;-78
2023/05/31 03:31:29;;;;;;;5.70;1.80;;;;;;;;;;4286843;33;20053;-77
2023/05/31 03:33:55;;;;;;;3.65;1.55;;;;;;;;;;4258212;33;20085;-78
2023/05/31 03:36:22;;;;;;;5.47;2.10;;;;;;;;;;4258523;33;20041;-78
2023/05/31 03:38:48;;;;;;;3.47;1.70;;;;;;;;;;4258492;33;20069;-78
2023/05/31 03:41:16;;;;;;;9.98;1.83;;;;;;;;;;4258073;33;20448;-78
2023/05/31 03:43:42;;;;;;;6.37;1.73;;;;;;;;;;4258257;33;20030;-77
2023/05/31 03:46:09;;;;;;;6.00;1.60;;;;;;;;;;4258013;33;20046;-78
2023/05/31 03:48:35;;;;;;;2.97;1.50;;;;;;;;;;4258062;33;20038;-76
2023/05/31 03:51:02;;;;;;;5.43;1.67;;;;;;;;;;4257875;33;20166;-76
2023/05/31 03:53:28;;;;;;;3.53;1.60;;;;;;;;;;4269607;33;20025;-75
2023/05/31 03:55:56;;;;;;;4.55;1.67;;;;;;;;;;4271914;33;20041;-76
2023/05/31 03:58:23;;;;;;;3.78;1.87;;;;;;;;;;4271939;33;20030;-76
2023/05/31 04:00:49;;;;;;;4.07;1.67;;;;;;;;;;4271269;33;20491;-76
2023/05/31 04:03:16;;;;;;;4.22;1.40;;;;;;;;;;4271887;33;20044;-76
2023/05/31 04:05:42;;;;;;;3.92;1.58;;;;;;;;;;4285565;33;20067;-75
2023/05/31 04:08:08;;;;;;;11.88;1.77;;;;;;;;;;4288289;33;20046;-75
2023/05/31 04:10:35;;;;;;;4.12;1.70;;;;;;;;;;4288202;33;20077;-76
2023/05/31 04:13:01;;;;;;;7.00;2.45;;;;;;;;;;4288251;33;20037;-76
2023/05/31 04:15:27;;;;;;;1.30;1.20;;;;;;;;;;4288084;33;20048;-76
2023/05/31 04:18:00;;;;;;;2.90;1.65;;;;;;;;;;4288266;33;20040;-76
2023/05/31 04:20:27;;;;;;;7.70;1.85;;;;;;;;;;4288047;33;20075;-77
2023/05/31 04:22:53;;;;;;;4.62;1.90;;;;;;;;;;4288199;33;20037;-76
2023/05/31 04:25:20;;;;;;;4.95;1.77;;;;;;;;;;4288073;33;20206;-75
2023/05/31 04:27:47;;;;;;;8.30;1.92;;;;;;;;;;4288193;33;20046;-75
2023/05/31 04:30:14;;;;;;;1.90;1.40;;;;;;;;;;4288121;33;20042;-75
2023/05/31 04:32:40;;;;;;;4.30;1.42;;;;;;;;;;4288438;33;20079;-76
2023/05/31 04:35:08;;;;;;;3.15;1.55;;;;;;;;;;4288081;33;20405;-76
2023/05/31 04:37:35;;;;;;;2.80;1.83;;;;;;;;;;4288059;33;20046;-76
2023/05/31 04:40:05;;;;;;;4.95;1.62;;;;;;;;;;4288041;33;20420;-76
2023/05/31 04:42:31;;;;;;;8.70;1.30;;;;;;;;;;4287975;33;20040;-75
2023/05/31 04:44:58;;;;;;;5.05;1.37;;;;;;;;;;4288917;33;20074;-75
2023/05/31 04:47:27;;;;;;;2.50;1.30;;;;;;;;;;4290875;33;20059;-76
2023/05/31 04:49:57;;;;;;;5.75;1.42;;;;;;;;;;4290827;33;20386;-76
2023/05/31 04:52:26;;;;;;;1.50;1.40;;;;;;;;;;4289668;33;20037;-77
2023/05/31 04:54:55;;;;;;;3.00;1.20;;;;;;;;;;4303501;33;20049;-78
2023/05/31 04:57:22;;;;;;;5.90;2.90;;;;;;;;;;4287864;33;20034;-75
2023/05/31 04:59:49;;;;;;;3.55;2.05;;;;;;;;;;4287653;33;20078;-77
2023/05/31 05:02:16;;;;;;;6.97;1.73;;;;;;;;;;4287306;33;20213;-77
2023/05/31 05:04:43;;;;;;;5.15;1.62;;;;;;;;;;4288858;33;20075;-76
2023/05/31 05:07:09;;;;;;;4.78;1.50;;;;;;;;;;4288799;33;20407;-77
2023/05/31 05:09:37;;;;;;;3.78;1.70;;;;;;;;;;4288602;33;20080;-77
2023/05/31 05:12:04;;;;;;;2.40;2.10;;;;;;;;;;4288525;33;20059;-77
2023/05/31 05:14:31;;;;;;;2.78;1.27;;;;;;;;;;4287688;33;20041;-77
2023/05/31 05:16:57;;;;;;;1.48;1.37;;;;;;;;;;4273171;33;20117;-77
2023/05/31 05:19:24;;;;;;;9.85;1.90;;;;;;;;;;4274100;33;20064;-78
2023/05/31 05:21:50;;;;;;;3.75;1.60;;;;;;;;;;4274133;33;20365;-76
2023/05/31 05:24:17;;;;;;;2.55;1.30;;;;;;;;;;4274224;33;20432;-77
2023/05/31 05:26:43;;;;;;;4.82;1.70;;;;;;;;;;4261199;33;20035;-77
2023/05/31 05:29:11;;;;;;;8.05;1.70;;;;;;;;;;4260075;33;20053;-78
2023/05/31 05:31:37;;;;;;;7.47;2.08;;;;;;;;;;4259948;33;20030;-78
2023/05/31 05:34:04;;;;;;;11.30;1.87;;;;;;;;;;4260172;33;20385;-78
2023/05/31 05:36:30;;;;;;;4.70;1.83;;;;;;;;;;4259522;33;20038;-80
2023/05/31 05:39:03;;;;;;;2.15;1.73;;;;;;;;;;4273877;33;20099;-77
2023/05/31 05:41:30;;;;;;;4.80;2.53;;;;;;;;;;4273459;33;20063;-79
2023/05/31 05:43:57;;;;;;;5.87;2.17;;;;;;;;;;4272384;33;20457;-77
2023/05/31 05:46:23;;;;;;;8.32;1.62;;;;;;;;;;4273558;33;20035;-75
2023/05/31 05:48:50;;;;;;;4.75;1.30;;;;;;;;;;4285883;33;20063;-75
2023/05/31 05:51:17;;;;;;;2.95;1.62;;;;;;;;;;4288134;33;20366;-75
2023/05/31 05:53:43;;;;;;;2.37;1.25;;;;;;;;;;4287790;33;20041;-76
2023/05/31 05:56:11;;;;;;;2.58;1.37;;;;;;;;;;4273510;33;20038;-77
2023/05/31 05:58:40;;;;;;;2.87;1.43;;;;;;;;;;4272445;33;20060;-74
2023/05/31 06:01:12;;;;;;;2.72;1.15;;;;;;;;;;4272018;33;20072;-75
2023/05/31 06:03:39;;;;;;;4.60;1.35;;;;;;;;;;4273745;33;20054;-75
2023/05/31 06:06:05;;;;;;;1.60;1.02;;;;;;;;;;4271943;33;20087;-77
2023/05/31 06:08:32;;;;;;;3.58;1.42;;;;;;;;;;4273749;33;20046;-75
2023/05/31 06:10:59;;;;;;;6.60;1.67;;;;;;;;;;4233915;33;20047;-75
2023/05/31 06:13:26;;;;;;;2.60;1.17;;;;;;;;;;4230129;34;20053;-77
2023/05/31 06:15:52;;;;;;;5.35;1.55;;;;;;;;;;4231168;34;20034;-76
2023/05/31 06:18:19;;;;;;;1.20;1.10;;;;;;;;;;4231070;34;20386;-76
2023/05/31 06:20:46;;;;;;;9.40;1.50;;;;;;;;;;4230746;34;20047;-77
2023/05/31 06:26:03;;;;;;;1.50;1.02;;;;;;;;;;4202526;33;20142;-73
2023/05/31 06:28:30;;;;;;;1.60;1.02;;;;;;;;;;4235368;33;20054;-73
2023/05/31 06:31:00;;;;;;;3.47;0.88;;;;;;;;;;4236924;33;20062;-73
2023/05/31 06:33:26;;;;;;;8.57;1.20;;;;;;;;;;4235010;33;20058;-74
2023/05/31 06:35:53;;;;;;;6.82;1.60;;;;;;;;;;4238210;33;20364;-74
2023/05/31 06:38:21;;;;;;;5.05;1.70;;;;;;;;;;4249190;33;20083;-74
2023/05/31 06:40:48;;;;;;;15.13;1.92;;;;;;;;;;4250342;33;20075;-75
2023/05/31 06:43:15;;;;;;;5.15;1.20;;;;;;;;;;4260270;33;20053;-75
2023/05/31 06:45:42;;;;;;;1.55;1.00;;;;;;;;;;4258012;33;20038;-76
2023/05/31 06:48:09;;;;;;;2.00;1.05;;;;;;;;;;4253114;33;20141;-74
2023/05/31 06:50:49;;;;;;;2.65;1.12;;;;;;;;;;4256912;33;20471;-75
2023/05/31 06:53:17;;;;;;;3.25;1.25;;;;;;;;;;4261579;33;20112;-75
2023/05/31 06:55:44;;;;;;;4.78;1.40;;;;;;;;;;4256263;33;20192;-75
2023/05/31 06:58:13;;;;;;;5.43;1.50;;;;;;;;;;4254915;33;20075;-74
2023/05/31 07:00:40;;;;;;;2.37;0.98;;;;;;;;;;4261034;33;20065;-75
2023/05/31 07:03:06;;;;;;;7.82;1.30;;;;;;;;;;4265496;33;20054;-74
2023/05/31 07:05:33;;;;;;;6.72;2.67;;;;;;;;;;4265681;33;20087;-76
2023/05/31 07:08:00;;;;;;;0.90;0.88;;;;;;;;;;4260389;33;20057;-75
2023/05/31 07:10:29;;;;;;;3.80;1.45;;;;;;;;;;4259891;33;20079;-74
2023/05/31 07:12:56;;;;;;;6.37;1.33;;;;;;;;;;4252517;33;20054;-75
2023/05/31 07:15:22;;;;;;;0.80;0.80;;;;;;;;;;4253403;33;20057;-75
2023/05/31 07:17:49;;;;;;;3.92;0.98;;;;;;;;;;4251250;33;20434;-76
2023/05/31 07:20:15;;;;;;;1.85;1.10;;;;;;;;;;4259481;33;20197;-75
2023/05/31 07:22:41;;;;;;;2.35;1.00;;;;;;;;;;4262920;33;20062;-76
2023/05/31 07:25:08;;;;;;;3.80;0.98;;;;;;;;;;4268968;33;20087;-75
2023/05/31 07:27:34;;;;;;;11.35;1.62;;;;;;;;;;4274977;33;20171;-75
2023/05/31 07:30:00;;;;;;;1.30;1.05;;;;;;;;;;4276280;33;20046;-75
2023/05/31 07:32:28;;;;;;;7.87;1.17;;;;;;;;;;4276824;33;20100;-73
2023/05/31 07:34:54;;;;;;;6.30;1.48;;;;;;;;;;4275005;33;20042;-74
2023/05/31 07:37:21;;;;;;;6.75;1.92;;;;;;;;;;4265661;33;20057;-75
2023/05/31 07:39:47;;;;;;;3.22;0.85;;;;;;;;;;4275538;33;20119;-76
2023/05/31 07:42:13;;;;;;;5.43;1.23;;;;;;;;;;4275463;33;20438;-75
2023/05/31 07:44:39;;;;;;;1.20;0.70;;;;;;;;;;4235021;33;20042;-74
2023/05/31 07:47:06;;;;;;;1.17;0.80;;;;;;;;;;4243605;33;20075;-76
2023/05/31 07:49:32;;;;;;;1.00;0.80;;;;;;;;;;4240950;33;20542;-76
2023/05/31 07:51:58;;;;;;;2.80;0.90;;;;;;;;;;4240558;33;20077;-75
2023/05/31 07:54:25;;;;;;;4.53;1.98;;;;;;;;;;4240682;33;20115;-76
2023/05/31 07:56:53;;;;;;;3.28;1.62;;;;;;;;;;4246399;33;20060;-75
2023/05/31 07:59:20;;;;;;;4.37;1.90;;;;;;;;;;4245714;33;20050;-74
2023/05/31 08:01:48;;;;;;;6.03;2.65;;;;;;;;;;4235039;33;20055;-84
2023/05/31 08:04:18;;;;;;;2.20;1.62;;;;;;;;;;4244898;33;20546;-75
2023/05/31 08:06:46;;;;;;;5.90;1.40;;;;;;;;;;4240954;33;20724;-73
2023/05/31 08:09:12;;;;;;;1.80;1.60;;;;;;;;;;4234694;33;20058;-72
2023/05/31 08:11:39;;;;;;;3.37;1.58;;;;;;;;;;4238972;33;20076;-73
2023/05/31 08:14:05;;;;;;;2.60;1.10;;;;;;;;;;4239674;33;20050;-72
2023/05/31 08:16:32;;;;;;;2.85;1.20;;;;;;;;;;4268932;33;20363;-74
2023/05/31 08:18:58;;;;;;;4.55;0.90;;;;;;;;;;4281208;33;20037;-73
2023/05/31 08:21:25;;;;;;;2.60;1.37;;;;;;;;;;4282229;33;20152;-74
2023/05/31 08:23:51;;;;;;;3.47;1.10;;;;;;;;;;4282753;33;20057;-73
2023/05/31 08:26:17;;;;;;;1.30;0.77;;;;;;;;;;4283577;33;20118;-73
2023/05/31 08:28:43;;;;;;;2.33;1.20;;;;;;;;;;4279527;33;20042;-73
2023/05/31 08:31:09;;;;;;;2.75;1.30;;;;;;;;;;4279986;33;20395;-77
2023/05/31 08:33:36;;;;;;;2.75;1.08;;;;;;;;;;4280070;33;20075;-73
2023/05/31 08:36:04;;;;;;;7.10;1.40;;;;;;;;;;4281375;33;20057;-73
2023/05/31 08:38:30;;;;;;;10.30;1.25;;;;;;;;;;4280397;33;20046;-73
2023/05/31 08:40:57;;;;;;;7.07;2.03;;;;;;;;;;4279880;33;20061;-74
2023/05/31 08:43:25;;;;;;;2.97;1.48;;;;;;;;;;4279977;33;20063;-74
2023/05/31 08:45:51;;;;;;;1.98;1.45;;;;;;;;;;4280819;33;20067;-73
2023/05/31 08:48:18;;;;;;;3.80;1.37;;;;;;;;;;4281246;33;20067;-73
2023/05/31 08:50:44;;;;;;;2.97;1.75;;;;;;;;;;4277976;33;20103;-73
2023/05/31 08:53:11;;;;;;;16.20;1.30;;;;;;;;;;4267834;33;20071;-74
2023/05/31 08:55:38;;;;;;;1.77;1.20;;;;;;;;;;4275077;33;20132;-73
2023/05/31 08:58:04;;;;;;;1.87;0.98;;;;;;;;;;4271600;33;20046;-73
2023/05/31 09:00:32;;;;;;;2.60;1.15;;;;;;;;;;4232747;33;20199;-72
2023/05/31 09:02:59;;;;;;;8.57;1.35;;;;;;;;;;4237734;33;20462;-72
2023/05/31 09:05:25;;;;;;;5.25;1.50;;;;;;;;;;4223942;33;20060;-74
2023/05/31 09:07:52;;;;;;;1.37;0.80;;;;;;;;;;4222778;33;20065;-74
2023/05/31 09:10:19;;;;;;;0.95;0.95;;;;;;;;;;4223749;33;20055;-72
2023/05/31 09:12:45;;;;;;;2.45;0.98;;;;;;;;;;4223092;33;20080;-72
2023/05/31 09:15:17;;;;;;;1.52;1.23;;;;;;;;;;4209814;34;20428;-73
2023/05/31 09:17:44;;;;;;;;;;;;;;;;;;4206966;34;20065;-73
2023/05/31 09:20:10;;;;;;;1.55;0.98;;;;;;;;;;4196589;34;20410;-74
2023/05/31 09:22:36;;;;;;;4.95;1.10;;;;;;;;;;4196811;34;20035;-75
2023/05/31 09:25:03;;;;;;;1.37;1.12;;;;;;;;;;4195998;34;20295;-74
2023/05/31 09:27:36;;;;;;;5.57;1.58;;;;;;;;;;4194364;34;20035;-73
2023/05/31 09:30:10;;;;;;;2.65;1.62;;;;;;;;;;4196207;34;20329;-76
2023/05/31 09:32:37;;;;;;;4.65;1.25;;;;;;;;;;4221307;33;20389;-76
2023/05/31 09:35:11;;;;;;;3.72;1.65;;;;;;;;;;4224874;34;20062;-75
2023/05/31 09:37:41;;;;;;;11.00;1.60;;;;;;;;;;4222837;34;20081;-75
2023/05/31 09:40:08;;;;;;;6.37;1.20;;;;;;;;;;4224261;34;20483;-76
2023/05/31 09:42:34;;;;;;;2.05;1.23;;;;;;;;;;4224559;33;20674;-76
2023/05/31 09:45:00;;;;;;;3.60;0.93;;;;;;;;;;4224936;34;20075;-75
2023/05/31 09:47:27;;;;;;;3.47;1.10;;;;;;;;;;4222700;34;20050;-74
2023/05/31 09:49:56;;;;;;;4.03;1.20;;;;;;;;;;4224730;34;20058;-76
2023/05/31 09:52:28;;;;;;;2.25;1.67;;;;;;;;;;4242851;33;20033;-76
2023/05/31 09:54:56;;;;;;;2.83;1.10;;;;;;;;;;4252101;33;20055;-76
2023/05/31 09:57:40;;;;;;;5.62;1.30;;;;;;;;;;4281908;33;20455;-76
2023/05/31 10:00:25;;;;;;;3.03;0.88;;;;;;;;;;4283499;33;20045;-75
2023/05/31 10:02:53;;;;;;;4.47;1.50;;;;;;;;;;4283192;33;20050;-74
2023/05/31 10:05:20;;;;;;;1.45;1.35;;;;;;;;;;4282482;33;20049;-76
2023/05/31 10:07:47;;;;;;;1.42;1.00;;;;;;;;;;4284138;33;20063;-75
2023/05/31 10:10:14;;;;;;;5.28;1.20;;;;;;;;;;4283702;33;20079;-75
2023/05/31 10:12:57;;;;;;;3.45;1.87;;;;;;;;;;4266585;33;20049;-75
2023/05/31 10:15:24;;;;;;;1.75;1.10;;;;;;;;;;4266495;33;20077;-75
2023/05/31 10:17:56;;;;;;;1.37;1.00;;;;;;;;;;4266799;33;20079;-75
2023/05/31 10:20:24;;;;;;;4.20;1.35;;;;;;;;;;4267011;33;20057;-75
2023/05/31 10:22:52;;;;;;;9.35;1.15;;;;;;;;;;4263273;33;20046;-75
2023/05/31 10:25:29;;;;;;;6.22;1.05;;;;;;;;;;4265619;33;20062;-76
2023/05/31 10:28:00;;;;;;;1.15;1.00;;;;;;;;;;4266935;33;20071;-75
2023/05/31 10:30:27;;;;;;;4.97;1.30;;;;;;;;;;4268177;33;20444;-75
2023/05/31 10:32:59;;;;;;;1.30;1.12;;;;;;;;;;4267947;33;20033;-75
2023/05/31 10:35:26;;;;;;;5.40;1.48;;;;;;;;;;4270068;33;20050;-75
2023/05/31 10:37:53;;;;;;;5.35;1.40;;;;;;;;;;4269889;33;20064;-75
2023/05/31 10:40:23;;;;;;;3.58;1.15;;;;;;;;;;4271676;33;20067;-75
2023/05/31 10:42:59;;;;;;;5.00;0.80;;;;;;;;;;4271660;33;20210;-75
2023/05/31 10:45:29;;;;;;;2.53;1.02;;;;;;;;;;4277561;33;20060;-75
2023/05/31 10:47:55;;;;;;;1.55;1.35;;;;;;;;;;4266190;33;20057;-75
2023/05/31 10:50:22;;;;;;;1.77;1.27;;;;;;;;;;4264110;33;20112;-76
2023/05/31 10:52:51;;;;;;;1.40;1.30;;;;;;;;;;4265717;33;20481;-81
2023/05/31 10:55:19;;;;;;;0.98;0.95;;;;;;;;;;4265133;33;20511;-83
2023/05/31 10:57:49;;;;;;;1.48;1.40;;;;;;;;;;4252262;33;20342;-84
2023/05/31 11:03:11;;;;;;;4.87;1.40;;;;;;;;;;4046416;31;20080;-78
2023/05/31 11:05:53;;;;;;;1.67;0.90;;;;;;;;;;4273233;33;20041;-79
2023/05/31 11:08:21;;;;;;;2.37;1.37;;;;;;;;;;4282258;33;20037;-76
2023/05/31 11:10:50;;;;;;;1.48;1.10;;;;;;;;;;4283217;33;20630;-78
2023/05/31 11:13:19;;;;;;;4.90;1.87;;;;;;;;;;4281054;33;20441;-79
2023/05/31 11:15:47;;;;;;;1.35;1.17;;;;;;;;;;4284818;33;20083;-79
2023/05/31 11:18:23;;;;;;;3.67;1.27;;;;;;;;;;4284193;33;20061;-78
2023/05/31 11:20:51;;;;;;;6.78;2.30;;;;;;;;;;4284503;33;20049;-79
2023/05/31 11:23:19;;;;;;;4.72;1.48;;;;;;;;;;4282379;33;20075;-78
2023/05/31 11:26:05;;;;;;;2.92;1.15;;;;;;;;;;4283390;33;20097;-77
2023/05/31 11:28:49;;;;;;;0.90;0.90;;;;;;;;;;4278120;33;20439;-77
2023/05/31 11:31:37;;;;;;;2.08;1.00;;;;;;;;;;4271446;33;20050;-79
2023/05/31 11:34:18;;;;;;;3.37;1.10;;;;;;;;;;4270845;33;20075;-79
2023/05/31 11:36:46;;;;;;;1.77;0.80;;;;;;;;;;4250994;33;20050;-78
2023/05/31 11:39:15;;;;;;;3.95;1.33;;;;;;;;;;4250074;33;20054;-82
2023/05/31 11:41:43;;;;;;;27.98;14.20;;;;;;;;;;4251212;33;20046;-80
2023/05/31 11:44:10;;;;;;;6.55;2.37;;;;;;;;;;4251108;33;20131;-78
2023/05/31 11:46:40;;;;;;;4.30;1.70;;;;;;;;;;4249400;33;20544;-79
2023/05/31 11:49:08;;;;;;;6.60;1.52;;;;;;;;;;4251216;33;20538;-80
2023/05/31 11:51:35;;;;;;;23.58;2.30;;;;;;;;;;4250311;33;20381;-78
2023/05/31 11:54:02;;;;;;;1.42;1.00;;;;;;;;;;4249438;33;20454;-80
2023/05/31 11:56:30;;;;;;;2.75;1.50;;;;;;;;;;4220982;33;20072;-76
2023/05/31 11:58:59;;;;;;;1.30;1.20;;;;;;;;;;4219938;33;20036;-79
2023/05/31 12:01:26;;;;;;;2.00;1.60;;;;;;;;;;4221830;33;20378;-80
2023/05/31 12:04:01;;;;;;;1.10;1.10;;;;;;;;;;4243655;33;20067;-80
2023/05/31 12:06:28;;;;;;;1.10;1.00;;;;;;;;;;4242696;33;20045;-76
2023/05/31 12:08:54;;;;;;;5.93;1.42;;;;;;;;;;4243713;33;20051;-81
2023/05/31 12:11:24;;;;;;;1.15;1.15;;;;;;;;;;4243007;33;20072;-78
2023/05/31 12:13:49;;;;;;;3.92;1.30;;;;;;;;;;4245187;33;20552;-80
2023/05/31 12:16:16;;;;;;;4.95;1.00;;;;;;;;;;4250649;33;20050;-78
2023/05/31 12:18:42;;;;;;;1.25;1.17;;;;;;;;;;4263566;33;20054;-81
2023/05/31 12:21:10;;;;;;;1.73;1.00;;;;;;;;;;4265100;33;20093;-82
2023/05/31 12:23:57;;;;;;;2.15;1.17;;;;;;;;;;4264616;33;20080;-79
2023/05/31 12:26:24;;;;;;;3.72;1.00;;;;;;;;;;4261525;33;20456;-76
2023/05/31 12:28:51;;;;;;;3.28;1.08;;;;;;;;;;4278623;33;20140;-80
2023/05/31 12:31:23;;;;;;;10.13;1.40;;;;;;;;;;4278114;33;20119;-78
2023/05/31 12:34:04;;;;;;;6.15;1.00;;;;;;;;;;4278938;33;20077;-80
2023/05/31 12:36:38;;;;;;;1.35;1.25;;;;;;;;;;4262805;33;20083;-83
2023/05/31 12:39:24;;;;;;;1.30;1.30;;;;;;;;;;4263054;33;20033;-82
2023/05/31 12:41:51;;;;;;;1.20;1.02;;;;;;;;;;4262114;33;20046;-82
2023/05/31 12:44:20;;;;;;;5.87;1.20;;;;;;;;;;4263222;33;20796;-80
2023/05/31 12:46:47;;;;;;;4.57;1.15;;;;;;;;;;4264562;33;20161;-79
2023/05/31 12:49:22;;;;;;;3.92;0.80;;;;;;;;;;4264458;33;20037;-80
2023/05/31 12:51:56;;;;;;;1.00;1.00;;;;;;;;;;4260707;33;20068;-79
2023/05/31 12:54:24;;;;;;;0.85;0.85;;;;;;;;;;4264401;33;20090;-79
2023/05/31 12:56:50;;;;;;;3.33;0.90;;;;;;;;;;4264448;33;20061;-79
2023/05/31 12:59:16;;;;;;;0.90;0.90;;;;;;;;;;4263701;33;20428;-77
2023/05/31 13:01:43;;;;;;;1.42;0.85;;;;;;;;;;4266951;33;20045;-74
2023/05/31 13:04:11;;;;;;;3.50;0.80;;;;;;;;;;4276696;33;20158;-77
2023/05/31 13:06:38;;;;;;;1.77;1.12;;;;;;;;;;4254684;33;20049;-80
2023/05/31 13:09:04;;;;;;;0.95;0.88;;;;;;;;;;4281478;33;20045;-77
2023/05/31 13:11:32;;;;;;;3.58;1.10;;;;;;;;;;4279666;33;20046;-78
2023/05/31 13:13:58;;;;;;;4.47;0.88;;;;;;;;;;4279691;33;20473;-80
2023/05/31 13:16:24;;;;;;;1.27;0.90;;;;;;;;;;4281235;33;20053;-79
2023/05/31 13:18:50;;;;;;;7.22;1.02;;;;;;;;;;4281052;33;20045;-79
2023/05/31 13:21:16;;;;;;;1.05;0.95;;;;;;;;;;4280755;33;20058;-80
2023/05/31 13:23:42;;;;;;;2.58;1.00;;;;;;;;;;4280782;33;20415;-80
2023/05/31 13:26:09;;;;;;;0.77;0.77;;;;;;;;;;4278904;33;20045;-77
2023/05/31 13:28:36;;;;;;;0.80;0.80;;;;;;;;;;4280800;33;20991;-79
2023/05/31 13:31:02;;;;;;;1.55;1.00;;;;;;;;;;4279140;33;20541;-80
2023/05/31 13:33:29;;;;;;;4.12;1.00;;;;;;;;;;4279664;33;20104;-81
2023/05/31 13:35:55;;;;;;;1.30;1.10;;;;;;;;;;4278782;33;20052;-76
2023/05/31 13:38:23;;;;;;;2.95;1.10;;;;;;;;;;4287595;33;20488;-77
2023/05/31 13:40:50;;;;;;;4.40;0.75;;;;;;;;;;4278944;33;20083;-72
2023/05/31 13:43:17;;;;;;;0.98;0.98;;;;;;;;;;4278978;33;20101;-73
2023/05/31 13:45:44;;;;;;;2.75;0.90;;;;;;;;;;4244960;33;20528;-72
2023/05/31 13:48:10;;;;;;;0.70;0.70;;;;;;;;;;4257373;33;20117;-73
2023/05/31 13:50:36;;;;;;;2.40;0.90;;;;;;;;;;4251064;33;20054;-72
2023/05/31 13:53:02;;;;;;;3.35;1.02;;;;;;;;;;4252195;33;20073;-72
2023/05/31 13:55:29;;;;;;;1.05;0.90;;;;;;;;;;4252472;33;20334;-72
2023/05/31 13:57:55;;;;;;;1.25;0.70;;;;;;;;;;4252226;33;20038;-72
2023/05/31 14:00:21;;;;;;;1.65;0.70;;;;;;;;;;4235104;33;20064;-73
2023/05/31 14:02:48;;;;;;;0.93;0.93;;;;;;;;;;4229078;33;20132;-73
2023/05/31 14:05:14;;;;;;;1.45;0.90;;;;;;;;;;4229423;33;20065;-74
2023/05/31 14:07:40;;;;;;;1.87;1.02;;;;;;;;;;4230274;33;20051;-73
2023/05/31 14:10:07;;;;;;;3.47;0.85;;;;;;;;;;4231000;33;20554;-73
2023/05/31 14:12:33;;;;;;;2.35;1.12;;;;;;;;;;4256073;33;20068;-73
2023/05/31 14:14:59;;;;;;;1.10;1.00;;;;;;;;;;4257447;33;20103;-75
2023/05/31 14:17:25;;;;;;;4.18;0.90;;;;;;;;;;4259320;33;20546;-73
2023/05/31 14:19:51;;;;;;;1.85;1.45;;;;;;;;;;4257702;33;20053;-75
2023/05/31 14:22:17;;;;;;;1.67;0.90;;;;;;;;;;4256519;33;20046;-73
2023/05/31 14:24:44;;;;;;;2.47;0.90;;;;;;;;;;4259024;33;20049;-74
2023/05/31 14:27:10;;;;;;;2.47;1.02;;;;;;;;;;4256588;33;20119;-74
2023/05/31 14:29:36;;;;;;;2.15;1.17;;;;;;;;;;4254922;33;20494;-73
2023/05/31 14:32:02;;;;;;;1.08;0.77;;;;;;;;;;4269217;33;20045;-73
2023/05/31 14:34:28;;;;;;;1.02;0.88;;;;;;;;;;4272768;33;20424;-73
2023/05/31 14:36:54;;;;;;;1.00;1.00;;;;;;;;;;4270299;33;20045;-73
2023/05/31 14:39:21;;;;;;;8.07;1.15;;;;;;;;;;4272543;33;20068;-73
2023/05/31 14:41:47;;;;;;;1.30;1.00;;;;;;;;;;4272411;33;21022;-73
2023/05/31 14:44:13;;;;;;;11.77;1.37;;;;;;;;;;4283205;33;20075;-73
2023/05/31 14:46:39;;;;;;;3.50;1.15;;;;;;;;;;4287766;33;20084;-74
2023/05/31 14:49:05;;;;;;;7.07;1.20;;;;;;;;;;4285258;33;20054;-73
2023/05/31 14:51:33;;;;;;;6.35;0.95;;;;;;;;;;4285304;33;20041;-73
2023/05/31 14:54:00;;;;;;;4.45;1.10;;;;;;;;;;4286032;33;20076;-74
2023/05/31 14:56:26;;;;;;;1.75;1.40;;;;;;;;;;4286316;33;20066;-74
2023/05/31 14:58:52;;;;;;;4.85;1.77;;;;;;;;;;4292588;33;20054;-74
2023/05/31 15:01:20;;;;;;;2.15;1.12;;;;;;;;;;4273210;33;20070;-74
2023/05/31 15:03:46;;;;;;;2.83;1.35;;;;;;;;;;4265632;33;20046;-74
2023/05/31 15:06:12;;;;;;;5.90;0.98;;;;;;;;;;4268969;33;20033;-75
2023/05/31 15:08:39;;;;;;;5.97;1.20;;;;;;;;;;4271927;33;20515;-74
2023/05/31 15:11:06;;;;;;;5.90;0.93;;;;;;;;;;4272644;33;20053;-73
2023/05/31 15:13:32;;;;;;;4.97;0.98;;;;;;;;;;4270187;33;20053;-74
2023/05/31 15:15:58;;;;;;;2.85;1.30;;;;;;;;;;4267684;33;20089;-75
2023/05/31 15:18:25;;;;;;;3.42;1.05;;;;;;;;;;4265959;33;20045;-75
2023/05/31 15:20:51;;;;;;;2.37;1.35;;;;;;;;;;4250756;33;20863;-75
2023/05/31 15:23:18;;;;;;;1.60;1.50;;;;;;;;;;4248430;33;20058;-74
2023/05/31 15:25:44;;;;;;;4.53;1.23;;;;;;;;;;4247807;33;20037;-74
2023/05/31 15:28:11;;;;;;;2.62;1.12;;;;;;;;;;4249566;33;20058;-74
2023/05/31 15:30:37;;;;;;;1.12;1.12;;;;;;;;;;4249681;33;20076;-74
2023/05/31 15:33:04;;;;;;;1.55;1.45;;;;;;;;;;4239459;33;20079;-74
2023/05/31 15:35:33;;;;;;;2.87;0.98;;;;;;;;;;4260813;33;20038;-73
2023/05/31 15:38:00;;;;;;;1.35;1.23;;;;;;;;;;4262362;33;21054;-74
2023/05/31 15:40:26;;;;;;;1.48;1.27;;;;;;;;;;4251469;33;20492;-73
2023/05/31 15:42:52;;;;;;;4.30;1.23;;;;;;;;;;4250412;33;20041;-73
2023/05/31 15:45:19;;;;;;;3.75;1.48;;;;;;;;;;4251196;33;20039;-73
2023/05/31 15:47:45;;;;;;;1.58;1.00;;;;;;;;;;4233861;33;20050;-73
2023/05/31 15:50:11;;;;;;;1.00;1.00;;;;;;;;;;4235410;33;20121;-72
2023/05/31 15:52:37;;;;;;;2.70;1.33;;;;;;;;;;4233284;33;20087;-72
2023/05/31 15:55:04;;;;;;;1.45;1.35;;;;;;;;;;4234127;33;20035;-73
2023/05/31 15:57:30;;;;;;;1.80;1.33;;;;;;;;;;4238500;33;20047;-72
2023/05/31 15:59:57;;;;;;;4.25;1.55;;;;;;;;;;4249133;33;20072;-73
2023/05/31 16:02:23;;;;;;;3.22;1.30;;;;;;;;;;4250108;33;20877;-73
2023/05/31 16:04:49;;;;;;;7.22;1.75;;;;;;;;;;4253138;33;20089;-73
2023/05/31 16:07:15;;;;;;;2.92;1.30;;;;;;;;;;4239150;33;20102;-74
2023/05/31 16:09:41;;;;;;;8.60;1.20;;;;;;;;;;4255087;33;20106;-74
2023/05/31 16:12:08;;;;;;;6.80;1.30;;;;;;;;;;4257358;33;20053;-74
2023/05/31 16:14:34;;;;;;;3.00;1.95;;;;;;;;;;4256843;33;20042;-74
2023/05/31 16:17:00;;;;;;;6.00;2.10;;;;;;;;;;4259087;33;20080;-73
2023/05/31 16:19:27;;;;;;;5.18;1.50;;;;;;;;;;4299909;33;20364;-73
2023/05/31 16:21:53;;;;;;;2.95;1.42;;;;;;;;;;4279727;33;20063;-73
2023/05/31 16:24:19;;;;;;;1.30;1.20;;;;;;;;;;4286424;33;20084;-74
2023/05/31 16:26:45;;;;;;;2.20;1.52;;;;;;;;;;4287542;33;20371;-74
2023/05/31 16:29:11;;;;;;;1.95;1.73;;;;;;;;;;4281104;33;20046;-74
2023/05/31 16:31:37;;;;;;;3.40;1.42;;;;;;;;;;4277868;33;20112;-74
2023/05/31 16:34:04;;;;;;;1.48;1.37;;;;;;;;;;4276891;33;20400;-72
2023/05/31 16:36:31;;;;;;;5.05;1.85;;;;;;;;;;4278422;33;20199;-74
2023/05/31 16:39:00;;;;;;;9.30;1.42;;;;;;;;;;4281663;33;20052;-74
2023/05/31 16:41:26;;;;;;;4.87;1.30;;;;;;;;;;4277769;33;20037;-76
2023/05/31 16:43:52;;;;;;;6.35;1.35;;;;;;;;;;4278143;33;20131;-74
2023/05/31 16:46:19;;;;;;;1.65;1.10;;;;;;;;;;4280313;33;20438;-76
2023/05/31 16:48:45;;;;;;;5.60;1.60;;;;;;;;;;4280915;33;20045;-75
2023/05/31 16:51:11;;;;;;;1.17;1.17;;;;;;;;;;4277762;33;20116;-75